sensor_id;sensor_type;location;lat;lon;timestamp;P1;durP1;ratioP1;P2;durP2;ratioP2
58372;SDS011;44177;43.356;27.672;2022-11-09T00:01:15;2.90;;;2.50;;
58372;SDS011;44177;43.356;27.672;2022-11-09T00:03:40;2.65;;;2.38;;
58372;SDS011;44177;43.356;27.672;2022-11-09T00:06:05;2.88;;;2.58;;
58372;SDS011;44177;43.356;27.672;2022-11-09T00:08:31;2.70;;;2.47;;
58372;SDS011;44177;43.356;27.672;2022-11-09T00:11:03;2.92;;;2.70;;
58372;SDS011;44177;43.356;27.672;2022-11-09T00:13:30;2.70;;;2.47;;
58372;SDS011;44177;43.356;27.672;2022-11-09T00:15:58;3.72;;;2.70;;
58372;SDS011;44177;43.356;27.672;2022-11-09T00:18:24;3.10;;;2.30;;
58372;SDS011;44177;43.356;27.672;2022-11-09T00:20:49;3.90;;;2.65;;
58372;SDS011;44177;43.356;27.672;2022-11-09T00:23:15;3.67;;;2.78;;
58372;SDS011;44177;43.356;27.672;2022-11-09T00:25:41;2.88;;;2.50;;
58372;SDS011;44177;43.356;27.672;2022-11-09T00:28:06;2.88;;;2.58;;
58372;SDS011;44177;43.356;27.672;2022-11-09T00:30:32;3.17;;;2.70;;
58372;SDS011;44177;43.356;27.672;2022-11-09T00:32:57;4.35;;;2.78;;
58372;SDS011;44177;43.356;27.672;2022-11-09T00:35:23;3.63;;;2.50;;
58372;SDS011;44177;43.356;27.672;2022-11-09T00:37:48;3.42;;;2.63;;
58372;SDS011;44177;43.356;27.672;2022-11-09T00:40:14;2.85;;;2.40;;
58372;SDS011;44177;43.356;27.672;2022-11-09T00:42:39;3.22;;;2.72;;
58372;SDS011;44177;43.356;27.672;2022-11-09T00:45:05;2.67;;;2.40;;
58372;SDS011;44177;43.356;27.672;2022-11-09T00:47:31;4.22;;;2.92;;
58372;SDS011;44177;43.356;27.672;2022-11-09T00:49:56;3.08;;;2.47;;
58372;SDS011;44177;43.356;27.672;2022-11-09T00:52:21;2.65;;;2.42;;
58372;SDS011;44177;43.356;27.672;2022-11-09T00:54:47;2.45;;;2.25;;
58372;SDS011;44177;43.356;27.672;2022-11-09T00:57:12;4.85;;;2.60;;
58372;SDS011;44177;43.356;27.672;2022-11-09T00:59:38;3.33;;;2.53;;
58372;SDS011;44177;43.356;27.672;2022-11-09T01:02:03;3.30;;;2.53;;
58372;SDS011;44177;43.356;27.672;2022-11-09T01:04:29;2.67;;;2.45;;
58372;SDS011;44177;43.356;27.672;2022-11-09T01:06:54;3.35;;;2.60;;
58372;SDS011;44177;43.356;27.672;2022-11-09T01:09:20;3.65;;;2.58;;
58372;SDS011;44177;43.356;27.672;2022-11-09T01:11:45;3.28;;;2.60;;
58372;SDS011;44177;43.356;27.672;2022-11-09T01:14:10;4.43;;;2.92;;
58372;SDS011;44177;43.356;27.672;2022-11-09T01:16:36;2.67;;;2.47;;
58372;SDS011;44177;43.356;27.672;2022-11-09T01:19:03;2.83;;;2.50;;
58372;SDS011;44177;43.356;27.672;2022-11-09T01:21:28;3.17;;;2.72;;
58372;SDS011;44177;43.356;27.672;2022-11-09T01:23:54;4.15;;;2.67;;
58372;SDS011;44177;43.356;27.672;2022-11-09T01:26:20;3.58;;;2.67;;
58372;SDS011;44177;43.356;27.672;2022-11-09T01:28:45;2.42;;;2.20;;
58372;SDS011;44177;43.356;27.672;2022-11-09T01:31:13;4.07;;;2.42;;
58372;SDS011;44177;43.356;27.672;2022-11-09T01:33:41;3.20;;;2.72;;
58372;SDS011;44177;43.356;27.672;2022-11-09T01:36:11;3.50;;;2.65;;
58372;SDS011;44177;43.356;27.672;2022-11-09T01:38:39;4.10;;;2.70;;
58372;SDS011;44177;43.356;27.672;2022-11-09T01:41:05;3.63;;;2.55;;
58372;SDS011;44177;43.356;27.672;2022-11-09T01:43:32;3.28;;;2.80;;
58372;SDS011;44177;43.356;27.672;2022-11-09T01:46:11;3.15;;;2.70;;
58372;SDS011;44177;43.356;27.672;2022-11-09T01:51:29;3.55;;;2.80;;
58372;SDS011;44177;43.356;27.672;2022-11-09T01:54:01;3.45;;;2.90;;
58372;SDS011;44177;43.356;27.672;2022-11-09T01:56:30;3.70;;;2.35;;
58372;SDS011;44177;43.356;27.672;2022-11-09T01:58:58;4.60;;;2.70;;
58372;SDS011;44177;43.356;27.672;2022-11-09T02:01:27;3.17;;;2.67;;
58372;SDS011;44177;43.356;27.672;2022-11-09T02:04:00;3.60;;;2.78;;
58372;SDS011;44177;43.356;27.672;2022-11-09T02:06:27;3.42;;;2.60;;
58372;SDS011;44177;43.356;27.672;2022-11-09T02:08:55;3.95;;;2.60;;
58372;SDS011;44177;43.356;27.672;2022-11-09T02:11:26;3.63;;;2.70;;
58372;SDS011;44177;43.356;27.672;2022-11-09T02:13:57;3.38;;;2.50;;
58372;SDS011;44177;43.356;27.672;2022-11-09T02:16:25;3.60;;;2.85;;
58372;SDS011;44177;43.356;27.672;2022-11-09T02:18:52;4.00;;;2.50;;
58372;SDS011;44177;43.356;27.672;2022-11-09T02:21:20;3.47;;;2.47;;
58372;SDS011;44177;43.356;27.672;2022-11-09T02:23:47;2.63;;;2.42;;
58372;SDS011;44177;43.356;27.672;2022-11-09T02:26:15;3.13;;;2.80;;
58372;SDS011;44177;43.356;27.672;2022-11-09T02:29:02;3.28;;;2.83;;
58372;SDS011;44177;43.356;27.672;2022-11-09T02:31:33;3.10;;;2.83;;
58372;SDS011;44177;43.356;27.672;2022-11-09T02:34:07;3.42;;;2.35;;
58372;SDS011;44177;43.356;27.672;2022-11-09T02:36:35;4.13;;;2.95;;
58372;SDS011;44177;43.356;27.672;2022-11-09T02:39:00;4.00;;;2.78;;
58372;SDS011;44177;43.356;27.672;2022-11-09T02:41:26;3.28;;;2.60;;
58372;SDS011;44177;43.356;27.672;2022-11-09T02:43:54;2.42;;;2.22;;
58372;SDS011;44177;43.356;27.672;2022-11-09T02:46:24;4.13;;;2.80;;
58372;SDS011;44177;43.356;27.672;2022-11-09T02:48:56;3.90;;;2.78;;
58372;SDS011;44177;43.356;27.672;2022-11-09T02:51:21;3.13;;;2.67;;
58372;SDS011;44177;43.356;27.672;2022-11-09T02:53:47;2.97;;;2.58;;
58372;SDS011;44177;43.356;27.672;2022-11-09T02:56:12;3.13;;;2.40;;
58372;SDS011;44177;43.356;27.672;2022-11-09T02:58:38;4.05;;;2.80;;
58372;SDS011;44177;43.356;27.672;2022-11-09T03:01:04;2.65;;;2.30;;
58372;SDS011;44177;43.356;27.672;2022-11-09T03:03:30;4.13;;;2.65;;
58372;SDS011;44177;43.356;27.672;2022-11-09T03:05:56;3.78;;;2.40;;
58372;SDS011;44177;43.356;27.672;2022-11-09T03:08:22;2.53;;;2.33;;
58372;SDS011;44177;43.356;27.672;2022-11-09T03:10:47;3.50;;;2.70;;
58372;SDS011;44177;43.356;27.672;2022-11-09T03:13:12;3.13;;;2.40;;
58372;SDS011;44177;43.356;27.672;2022-11-09T03:15:38;3.00;;;2.53;;
58372;SDS011;44177;43.356;27.672;2022-11-09T03:18:04;2.60;;;2.20;;
58372;SDS011;44177;43.356;27.672;2022-11-09T03:20:30;2.58;;;2.38;;
58372;SDS011;44177;43.356;27.672;2022-11-09T03:22:56;3.45;;;2.42;;
58372;SDS011;44177;43.356;27.672;2022-11-09T03:25:23;3.10;;;2.45;;
58372;SDS011;44177;43.356;27.672;2022-11-09T03:27:49;3.05;;;2.60;;
58372;SDS011;44177;43.356;27.672;2022-11-09T03:30:14;4.18;;;2.40;;
58372;SDS011;44177;43.356;27.672;2022-11-09T03:32:43;3.28;;;2.60;;
58372;SDS011;44177;43.356;27.672;2022-11-09T03:35:08;3.60;;;2.70;;
58372;SDS011;44177;43.356;27.672;2022-11-09T03:37:34;3.83;;;2.80;;
58372;SDS011;44177;43.356;27.672;2022-11-09T03:40:00;3.85;;;2.90;;
58372;SDS011;44177;43.356;27.672;2022-11-09T03:42:25;3.30;;;2.60;;
58372;SDS011;44177;43.356;27.672;2022-11-09T03:44:51;2.88;;;2.50;;
58372;SDS011;44177;43.356;27.672;2022-11-09T03:47:16;4.57;;;2.80;;
58372;SDS011;44177;43.356;27.672;2022-11-09T03:49:41;3.70;;;2.92;;
58372;SDS011;44177;43.356;27.672;2022-11-09T03:52:07;3.10;;;2.80;;
58372;SDS011;44177;43.356;27.672;2022-11-09T03:54:33;2.95;;;2.50;;
58372;SDS011;44177;43.356;27.672;2022-11-09T03:56:58;2.85;;;2.50;;
58372;SDS011;44177;43.356;27.672;2022-11-09T03:59:23;3.70;;;2.67;;
58372;SDS011;44177;43.356;27.672;2022-11-09T04:01:49;2.67;;;2.30;;
58372;SDS011;44177;43.356;27.672;2022-11-09T04:04:14;2.63;;;2.30;;
58372;SDS011;44177;43.356;27.672;2022-11-09T04:06:40;4.70;;;2.47;;
58372;SDS011;44177;43.356;27.672;2022-11-09T04:09:05;4.25;;;2.92;;
58372;SDS011;44177;43.356;27.672;2022-11-09T04:11:31;2.83;;;2.40;;
58372;SDS011;44177;43.356;27.672;2022-11-09T04:13:56;2.70;;;2.50;;
58372;SDS011;44177;43.356;27.672;2022-11-09T04:16:21;3.38;;;2.60;;
58372;SDS011;44177;43.356;27.672;2022-11-09T04:18:47;3.88;;;2.60;;
58372;SDS011;44177;43.356;27.672;2022-11-09T04:21:12;3.22;;;2.60;;
58372;SDS011;44177;43.356;27.672;2022-11-09T04:23:38;3.45;;;2.60;;
58372;SDS011;44177;43.356;27.672;2022-11-09T04:26:03;3.13;;;2.53;;
58372;SDS011;44177;43.356;27.672;2022-11-09T04:28:29;4.32;;;2.67;;
58372;SDS011;44177;43.356;27.672;2022-11-09T04:30:58;3.10;;;2.60;;
58372;SDS011;44177;43.356;27.672;2022-11-09T04:33:24;2.97;;;2.55;;
58372;SDS011;44177;43.356;27.672;2022-11-09T04:35:49;3.50;;;2.80;;
58372;SDS011;44177;43.356;27.672;2022-11-09T04:38:15;4.38;;;2.67;;
58372;SDS011;44177;43.356;27.672;2022-11-09T04:40:41;2.85;;;2.60;;
58372;SDS011;44177;43.356;27.672;2022-11-09T04:43:07;3.33;;;2.58;;
58372;SDS011;44177;43.356;27.672;2022-11-09T04:45:36;3.40;;;2.65;;
58372;SDS011;44177;43.356;27.672;2022-11-09T04:48:02;2.55;;;2.35;;
58372;SDS011;44177;43.356;27.672;2022-11-09T04:50:30;2.75;;;2.20;;
58372;SDS011;44177;43.356;27.672;2022-11-09T04:53:06;3.15;;;2.83;;
58372;SDS011;44177;43.356;27.672;2022-11-09T04:55:37;4.72;;;3.15;;
58372;SDS011;44177;43.356;27.672;2022-11-09T04:58:03;2.92;;;2.50;;
58372;SDS011;44177;43.356;27.672;2022-11-09T05:00:29;3.17;;;2.50;;
58372;SDS011;44177;43.356;27.672;2022-11-09T05:02:57;2.72;;;2.53;;
58372;SDS011;44177;43.356;27.672;2022-11-09T05:05:24;2.55;;;2.25;;
58372;SDS011;44177;43.356;27.672;2022-11-09T05:07:49;2.72;;;2.35;;
58372;SDS011;44177;43.356;27.672;2022-11-09T05:10:14;4.07;;;2.75;;
58372;SDS011;44177;43.356;27.672;2022-11-09T05:12:40;4.32;;;2.95;;
58372;SDS011;44177;43.356;27.672;2022-11-09T05:15:06;3.45;;;2.60;;
58372;SDS011;44177;43.356;27.672;2022-11-09T05:17:32;3.20;;;2.60;;
58372;SDS011;44177;43.356;27.672;2022-11-09T05:19:57;3.15;;;2.65;;
58372;SDS011;44177;43.356;27.672;2022-11-09T05:22:22;3.05;;;2.45;;
58372;SDS011;44177;43.356;27.672;2022-11-09T05:25:06;2.72;;;2.50;;
58372;SDS011;44177;43.356;27.672;2022-11-09T05:27:32;2.90;;;2.38;;
58372;SDS011;44177;43.356;27.672;2022-11-09T05:29:58;4.43;;;2.95;;
58372;SDS011;44177;43.356;27.672;2022-11-09T05:32:23;4.38;;;2.67;;
58372;SDS011;44177;43.356;27.672;2022-11-09T05:34:48;2.55;;;2.35;;
58372;SDS011;44177;43.356;27.672;2022-11-09T05:37:14;3.47;;;2.67;;
58372;SDS011;44177;43.356;27.672;2022-11-09T05:39:41;3.25;;;2.60;;
58372;SDS011;44177;43.356;27.672;2022-11-09T05:42:07;4.10;;;2.97;;
58372;SDS011;44177;43.356;27.672;2022-11-09T05:44:34;4.75;;;2.97;;
58372;SDS011;44177;43.356;27.672;2022-11-09T05:46:59;2.75;;;2.33;;
58372;SDS011;44177;43.356;27.672;2022-11-09T05:49:25;3.80;;;2.80;;
58372;SDS011;44177;43.356;27.672;2022-11-09T05:51:50;4.32;;;2.75;;
58372;SDS011;44177;43.356;27.672;2022-11-09T05:54:16;3.72;;;2.88;;
58372;SDS011;44177;43.356;27.672;2022-11-09T05:56:41;3.33;;;3.03;;
58372;SDS011;44177;43.356;27.672;2022-11-09T05:59:07;4.25;;;2.88;;
58372;SDS011;44177;43.356;27.672;2022-11-09T06:01:32;3.75;;;2.80;;
58372;SDS011;44177;43.356;27.672;2022-11-09T06:03:58;3.83;;;2.90;;
58372;SDS011;44177;43.356;27.672;2022-11-09T06:06:23;3.67;;;2.40;;
58372;SDS011;44177;43.356;27.672;2022-11-09T06:08:49;3.50;;;2.78;;
58372;SDS011;44177;43.356;27.672;2022-11-09T06:11:14;3.88;;;2.92;;
58372;SDS011;44177;43.356;27.672;2022-11-09T06:13:40;3.70;;;2.60;;
58372;SDS011;44177;43.356;27.672;2022-11-09T06:16:05;4.00;;;2.70;;
58372;SDS011;44177;43.356;27.672;2022-11-09T06:18:32;4.70;;;2.85;;
58372;SDS011;44177;43.356;27.672;2022-11-09T06:21:00;3.25;;;2.20;;
58372;SDS011;44177;43.356;27.672;2022-11-09T06:23:27;4.70;;;3.08;;
58372;SDS011;44177;43.356;27.672;2022-11-09T06:25:57;4.47;;;2.65;;
58372;SDS011;44177;43.356;27.672;2022-11-09T06:28:24;4.28;;;2.67;;
58372;SDS011;44177;43.356;27.672;2022-11-09T06:30:50;3.65;;;2.60;;
58372;SDS011;44177;43.356;27.672;2022-11-09T06:33:15;3.65;;;2.78;;
58372;SDS011;44177;43.356;27.672;2022-11-09T06:35:41;4.30;;;3.00;;
58372;SDS011;44177;43.356;27.672;2022-11-09T06:38:07;3.28;;;2.80;;
58372;SDS011;44177;43.356;27.672;2022-11-09T06:40:33;2.95;;;2.60;;
58372;SDS011;44177;43.356;27.672;2022-11-09T06:43:01;3.65;;;2.83;;
58372;SDS011;44177;43.356;27.672;2022-11-09T06:45:28;3.38;;;2.53;;
58372;SDS011;44177;43.356;27.672;2022-11-09T06:47:57;3.20;;;2.70;;
58372;SDS011;44177;43.356;27.672;2022-11-09T06:50:24;4.30;;;2.63;;
58372;SDS011;44177;43.356;27.672;2022-11-09T06:52:54;3.33;;;2.78;;
58372;SDS011;44177;43.356;27.672;2022-11-09T06:55:21;4.53;;;2.80;;
58372;SDS011;44177;43.356;27.672;2022-11-09T06:57:46;3.78;;;2.78;;
58372;SDS011;44177;43.356;27.672;2022-11-09T07:00:12;3.72;;;2.67;;
58372;SDS011;44177;43.356;27.672;2022-11-09T07:02:38;3.95;;;2.92;;
58372;SDS011;44177;43.356;27.672;2022-11-09T07:05:04;5.13;;;2.97;;
58372;SDS011;44177;43.356;27.672;2022-11-09T07:07:30;4.30;;;3.10;;
58372;SDS011;44177;43.356;27.672;2022-11-09T07:09:55;3.85;;;2.80;;
58372;SDS011;44177;43.356;27.672;2022-11-09T07:12:22;5.18;;;3.10;;
58372;SDS011;44177;43.356;27.672;2022-11-09T07:14:47;4.00;;;2.83;;
58372;SDS011;44177;43.356;27.672;2022-11-09T07:17:13;3.42;;;2.80;;
58372;SDS011;44177;43.356;27.672;2022-11-09T07:19:38;3.88;;;3.10;;
58372;SDS011;44177;43.356;27.672;2022-11-09T07:22:04;3.88;;;3.00;;
58372;SDS011;44177;43.356;27.672;2022-11-09T07:24:29;4.07;;;2.80;;
58372;SDS011;44177;43.356;27.672;2022-11-09T07:26:55;4.50;;;3.30;;
58372;SDS011;44177;43.356;27.672;2022-11-09T07:29:20;3.70;;;2.72;;
58372;SDS011;44177;43.356;27.672;2022-11-09T07:31:46;3.65;;;2.90;;
58372;SDS011;44177;43.356;27.672;2022-11-09T07:34:11;3.60;;;2.78;;
58372;SDS011;44177;43.356;27.672;2022-11-09T07:36:36;5.85;;;3.33;;
58372;SDS011;44177;43.356;27.672;2022-11-09T07:39:02;5.15;;;2.95;;
58372;SDS011;44177;43.356;27.672;2022-11-09T07:41:28;3.65;;;3.00;;
58372;SDS011;44177;43.356;27.672;2022-11-09T07:43:53;4.20;;;2.90;;
58372;SDS011;44177;43.356;27.672;2022-11-09T07:46:19;3.92;;;2.88;;
58372;SDS011;44177;43.356;27.672;2022-11-09T07:48:44;4.60;;;2.83;;
58372;SDS011;44177;43.356;27.672;2022-11-09T07:51:10;4.38;;;3.00;;
58372;SDS011;44177;43.356;27.672;2022-11-09T07:53:35;4.40;;;3.28;;
58372;SDS011;44177;43.356;27.672;2022-11-09T07:56:01;5.53;;;3.30;;
58372;SDS011;44177;43.356;27.672;2022-11-09T07:58:28;4.75;;;3.38;;
58372;SDS011;44177;43.356;27.672;2022-11-09T08:00:54;4.45;;;3.58;;
58372;SDS011;44177;43.356;27.672;2022-11-09T08:03:21;3.70;;;3.08;;
58372;SDS011;44177;43.356;27.672;2022-11-09T08:05:48;4.97;;;3.55;;
58372;SDS011;44177;43.356;27.672;2022-11-09T08:08:14;5.80;;;3.50;;
58372;SDS011;44177;43.356;27.672;2022-11-09T08:10:40;4.85;;;3.60;;
58372;SDS011;44177;43.356;27.672;2022-11-09T08:13:11;4.88;;;3.40;;
58372;SDS011;44177;43.356;27.672;2022-11-09T08:15:38;5.28;;;3.50;;
58372;SDS011;44177;43.356;27.672;2022-11-09T08:18:06;4.05;;;3.50;;
58372;SDS011;44177;43.356;27.672;2022-11-09T08:20:34;5.28;;;3.75;;
58372;SDS011;44177;43.356;27.672;2022-11-09T08:23:00;5.47;;;3.60;;
58372;SDS011;44177;43.356;27.672;2022-11-09T08:25:26;5.45;;;4.00;;
58372;SDS011;44177;43.356;27.672;2022-11-09T08:27:51;5.10;;;3.92;;
58372;SDS011;44177;43.356;27.672;2022-11-09T08:30:19;5.13;;;3.85;;
58372;SDS011;44177;43.356;27.672;2022-11-09T08:32:45;5.43;;;3.92;;
58372;SDS011;44177;43.356;27.672;2022-11-09T08:35:12;6.20;;;3.78;;
58372;SDS011;44177;43.356;27.672;2022-11-09T08:37:42;5.75;;;4.03;;
58372;SDS011;44177;43.356;27.672;2022-11-09T08:40:08;6.18;;;4.65;;
58372;SDS011;44177;43.356;27.672;2022-11-09T08:42:34;7.07;;;4.45;;
58372;SDS011;44177;43.356;27.672;2022-11-09T08:45:00;4.65;;;4.13;;
58372;SDS011;44177;43.356;27.672;2022-11-09T08:47:26;5.80;;;4.28;;
58372;SDS011;44177;43.356;27.672;2022-11-09T08:49:52;7.22;;;4.28;;
58372;SDS011;44177;43.356;27.672;2022-11-09T08:52:18;8.30;;;4.30;;
58372;SDS011;44177;43.356;27.672;2022-11-09T08:54:43;6.15;;;3.92;;
58372;SDS011;44177;43.356;27.672;2022-11-09T08:57:09;5.63;;;4.47;;
58372;SDS011;44177;43.356;27.672;2022-11-09T08:59:34;6.22;;;4.28;;
58372;SDS011;44177;43.356;27.672;2022-11-09T09:02:00;5.30;;;4.32;;
58372;SDS011;44177;43.356;27.672;2022-11-09T09:04:26;7.15;;;4.80;;
58372;SDS011;44177;43.356;27.672;2022-11-09T09:06:51;4.70;;;3.78;;
58372;SDS011;44177;43.356;27.672;2022-11-09T09:09:17;4.88;;;4.22;;
58372;SDS011;44177;43.356;27.672;2022-11-09T09:11:42;5.80;;;4.45;;
58372;SDS011;44177;43.356;27.672;2022-11-09T09:14:08;6.28;;;4.32;;
58372;SDS011;44177;43.356;27.672;2022-11-09T09:16:33;6.63;;;5.00;;
58372;SDS011;44177;43.356;27.672;2022-11-09T09:18:59;5.55;;;4.50;;
58372;SDS011;44177;43.356;27.672;2022-11-09T09:21:24;6.00;;;4.43;;
58372;SDS011;44177;43.356;27.672;2022-11-09T09:23:50;7.25;;;5.28;;
58372;SDS011;44177;43.356;27.672;2022-11-09T09:26:15;6.13;;;5.13;;
58372;SDS011;44177;43.356;27.672;2022-11-09T09:28:41;5.57;;;4.70;;
58372;SDS011;44177;43.356;27.672;2022-11-09T09:31:07;7.18;;;5.20;;
58372;SDS011;44177;43.356;27.672;2022-11-09T09:33:33;8.52;;;4.90;;
58372;SDS011;44177;43.356;27.672;2022-11-09T09:35:59;6.20;;;5.18;;
58372;SDS011;44177;43.356;27.672;2022-11-09T09:38:25;7.25;;;4.93;;
58372;SDS011;44177;43.356;27.672;2022-11-09T09:43:33;6.88;;;5.28;;
58372;SDS011;44177;43.356;27.672;2022-11-09T09:46:05;8.15;;;5.30;;
58372;SDS011;44177;43.356;27.672;2022-11-09T09:48:41;6.43;;;5.15;;
58372;SDS011;44177;43.356;27.672;2022-11-09T09:51:12;7.43;;;5.45;;
58372;SDS011;44177;43.356;27.672;2022-11-09T09:53:55;6.68;;;5.10;;
58372;SDS011;44177;43.356;27.672;2022-11-09T09:56:37;6.07;;;5.00;;
58372;SDS011;44177;43.356;27.672;2022-11-09T09:59:16;6.35;;;5.10;;
58372;SDS011;44177;43.356;27.672;2022-11-09T10:01:46;7.13;;;5.40;;
58372;SDS011;44177;43.356;27.672;2022-11-09T10:04:19;7.35;;;5.60;;
58372;SDS011;44177;43.356;27.672;2022-11-09T10:07:36;6.95;;;5.00;;
58372;SDS011;44177;43.356;27.672;2022-11-09T10:26:18;7.90;;;5.70;;
58372;SDS011;44177;43.356;27.672;2022-11-09T10:29:01;6.35;;;5.18;;
58372;SDS011;44177;43.356;27.672;2022-11-09T10:31:39;6.85;;;5.30;;
58372;SDS011;44177;43.356;27.672;2022-11-09T10:34:22;6.03;;;5.43;;
58372;SDS011;44177;43.356;27.672;2022-11-09T10:37:36;5.95;;;4.93;;
58372;SDS011;44177;43.356;27.672;2022-11-09T10:40:17;6.90;;;5.30;;
58372;SDS011;44177;43.356;27.672;2022-11-09T10:42:48;8.30;;;5.43;;
58372;SDS011;44177;43.356;27.672;2022-11-09T10:45:39;7.65;;;5.55;;
58372;SDS011;44177;43.356;27.672;2022-11-09T10:48:05;8.32;;;5.93;;
58372;SDS011;44177;43.356;27.672;2022-11-09T10:50:34;7.07;;;5.18;;
58372;SDS011;44177;43.356;27.672;2022-11-09T10:53:07;8.32;;;5.47;;
58372;SDS011;44177;43.356;27.672;2022-11-09T10:55:50;9.00;;;5.88;;
58372;SDS011;44177;43.356;27.672;2022-11-09T10:58:34;6.50;;;5.30;;
58372;SDS011;44177;43.356;27.672;2022-11-09T11:04:11;6.80;;;5.50;;
58372;SDS011;44177;43.356;27.672;2022-11-09T11:06:48;8.77;;;5.85;;
58372;SDS011;44177;43.356;27.672;2022-11-09T11:09:14;7.65;;;5.55;;
58372;SDS011;44177;43.356;27.672;2022-11-09T11:11:43;8.20;;;5.97;;
58372;SDS011;44177;43.356;27.672;2022-11-09T11:16:55;7.10;;;5.57;;
58372;SDS011;44177;43.356;27.672;2022-11-09T11:19:25;7.78;;;5.53;;
58372;SDS011;44177;43.356;27.672;2022-11-09T11:22:07;10.38;;;5.40;;
58372;SDS011;44177;43.356;27.672;2022-11-09T11:24:39;9.15;;;5.82;;
58372;SDS011;44177;43.356;27.672;2022-11-09T11:27:11;6.63;;;5.03;;
58372;SDS011;44177;43.356;27.672;2022-11-09T11:29:48;6.00;;;5.03;;
58372;SDS011;44177;43.356;27.672;2022-11-09T11:32:19;7.35;;;5.70;;
58372;SDS011;44177;43.356;27.672;2022-11-09T11:34:45;7.22;;;5.60;;
58372;SDS011;44177;43.356;27.672;2022-11-09T11:45:13;6.25;;;5.28;;
58372;SDS011;44177;43.356;27.672;2022-11-09T11:47:54;6.88;;;5.15;;
58372;SDS011;44177;43.356;27.672;2022-11-09T11:50:47;8.10;;;5.40;;
58372;SDS011;44177;43.356;27.672;2022-11-09T11:55:50;6.18;;;5.35;;
58372;SDS011;44177;43.356;27.672;2022-11-09T11:59:00;7.68;;;5.70;;
58372;SDS011;44177;43.356;27.672;2022-11-09T12:02:00;6.85;;;5.35;;
58372;SDS011;44177;43.356;27.672;2022-11-09T12:10:16;6.50;;;5.13;;
58372;SDS011;44177;43.356;27.672;2022-11-09T12:15:30;10.27;;;5.55;;
58372;SDS011;44177;43.356;27.672;2022-11-09T12:20:56;7.45;;;5.38;;
58372;SDS011;44177;43.356;27.672;2022-11-09T12:26:38;7.60;;;5.68;;
58372;SDS011;44177;43.356;27.672;2022-11-09T12:37:13;7.85;;;5.50;;
58372;SDS011;44177;43.356;27.672;2022-11-09T12:39:45;7.22;;;5.47;;
58372;SDS011;44177;43.356;27.672;2022-11-09T12:42:15;6.90;;;5.50;;
58372;SDS011;44177;43.356;27.672;2022-11-09T12:45:44;7.82;;;5.38;;
58372;SDS011;44177;43.356;27.672;2022-11-09T12:47:48;7.35;;;5.93;;
58372;SDS011;44177;43.356;27.672;2022-11-09T12:50:19;8.15;;;5.20;;
58372;SDS011;44177;43.356;27.672;2022-11-09T12:52:48;6.35;;;5.50;;
58372;SDS011;44177;43.356;27.672;2022-11-09T12:55:18;7.22;;;5.88;;
58372;SDS011;44177;43.356;27.672;2022-11-09T12:57:50;10.50;;;5.63;;
58372;SDS011;44177;43.356;27.672;2022-11-09T13:00:51;6.80;;;5.50;;
58372;SDS011;44177;43.356;27.672;2022-11-09T13:06:15;6.78;;;5.78;;
58372;SDS011;44177;43.356;27.672;2022-11-09T13:11:48;7.57;;;5.07;;
58372;SDS011;44177;43.356;27.672;2022-11-09T13:19:48;8.20;;;5.45;;
58372;SDS011;44177;43.356;27.672;2022-11-09T13:24:54;6.68;;;5.07;;
58372;SDS011;44177;43.356;27.672;2022-11-09T13:38:17;6.95;;;4.75;;
58372;SDS011;44177;43.356;27.672;2022-11-09T13:40:45;7.22;;;5.47;;
58372;SDS011;44177;43.356;27.672;2022-11-09T13:43:18;6.30;;;4.90;;
58372;SDS011;44177;43.356;27.672;2022-11-09T13:46:20;7.03;;;5.40;;
58372;SDS011;44177;43.356;27.672;2022-11-09T13:48:52;7.45;;;5.15;;
58372;SDS011;44177;43.356;27.672;2022-11-09T13:54:33;8.05;;;5.40;;
58372;SDS011;44177;43.356;27.672;2022-11-09T13:56:52;6.10;;;5.03;;
58372;SDS011;44177;43.356;27.672;2022-11-09T13:59:23;6.07;;;4.82;;
58372;SDS011;44177;43.356;27.672;2022-11-09T14:01:56;7.43;;;4.68;;
58372;SDS011;44177;43.356;27.672;2022-11-09T14:04:24;6.70;;;5.20;;
58372;SDS011;44177;43.356;27.672;2022-11-09T14:07:03;7.88;;;5.65;;
58372;SDS011;44177;43.356;27.672;2022-11-09T14:09:35;7.03;;;4.85;;
58372;SDS011;44177;43.356;27.672;2022-11-09T14:12:53;5.93;;;4.82;;
58372;SDS011;44177;43.356;27.672;2022-11-09T14:15:21;5.95;;;4.90;;
58372;SDS011;44177;43.356;27.672;2022-11-09T14:20:40;5.60;;;4.30;;
58372;SDS011;44177;43.356;27.672;2022-11-09T14:23:16;5.78;;;5.03;;
58372;SDS011;44177;43.356;27.672;2022-11-09T14:25:44;8.05;;;4.75;;
58372;SDS011;44177;43.356;27.672;2022-11-09T14:28:29;6.30;;;4.63;;
58372;SDS011;44177;43.356;27.672;2022-11-09T14:30:56;5.93;;;4.85;;
58372;SDS011;44177;43.356;27.672;2022-11-09T14:33:24;7.88;;;5.03;;
58372;SDS011;44177;43.356;27.672;2022-11-09T14:35:52;5.93;;;4.70;;
58372;SDS011;44177;43.356;27.672;2022-11-09T14:38:22;5.55;;;4.60;;
58372;SDS011;44177;43.356;27.672;2022-11-09T14:40:51;5.95;;;4.43;;
58372;SDS011;44177;43.356;27.672;2022-11-09T14:45:55;7.03;;;4.82;;
58372;SDS011;44177;43.356;27.672;2022-11-09T14:48:25;6.63;;;4.75;;
58372;SDS011;44177;43.356;27.672;2022-11-09T14:50:53;7.80;;;4.75;;
58372;SDS011;44177;43.356;27.672;2022-11-09T14:53:30;6.70;;;4.82;;
58372;SDS011;44177;43.356;27.672;2022-11-09T14:55:59;6.63;;;4.65;;
58372;SDS011;44177;43.356;27.672;2022-11-09T14:58:27;5.80;;;4.35;;
58372;SDS011;44177;43.356;27.672;2022-11-09T15:03:42;6.20;;;4.95;;
58372;SDS011;44177;43.356;27.672;2022-11-09T15:06:17;5.78;;;4.78;;
58372;SDS011;44177;43.356;27.672;2022-11-09T15:08:56;6.03;;;4.72;;
58372;SDS011;44177;43.356;27.672;2022-11-09T15:11:58;6.32;;;4.70;;
58372;SDS011;44177;43.356;27.672;2022-11-09T15:14:33;5.45;;;4.40;;
58372;SDS011;44177;43.356;27.672;2022-11-09T15:17:44;5.90;;;4.40;;
58372;SDS011;44177;43.356;27.672;2022-11-09T15:19:57;5.97;;;4.55;;
58372;SDS011;44177;43.356;27.672;2022-11-09T15:32:59;5.95;;;4.57;;
58372;SDS011;44177;43.356;27.672;2022-11-09T15:35:25;4.72;;;4.22;;
58372;SDS011;44177;43.356;27.672;2022-11-09T15:37:51;6.88;;;4.43;;
58372;SDS011;44177;43.356;27.672;2022-11-09T15:40:19;6.65;;;4.40;;
58372;SDS011;44177;43.356;27.672;2022-11-09T15:42:47;5.05;;;4.20;;
58372;SDS011;44177;43.356;27.672;2022-11-09T15:45:13;5.60;;;4.20;;
58372;SDS011;44177;43.356;27.672;2022-11-09T15:47:40;5.72;;;4.40;;
58372;SDS011;44177;43.356;27.672;2022-11-09T15:50:10;5.15;;;3.92;;
58372;SDS011;44177;43.356;27.672;2022-11-09T15:52:41;5.82;;;4.60;;
58372;SDS011;44177;43.356;27.672;2022-11-09T15:55:18;5.88;;;4.28;;
58372;SDS011;44177;43.356;27.672;2022-11-09T15:57:46;4.53;;;4.10;;
58372;SDS011;44177;43.356;27.672;2022-11-09T16:00:14;5.63;;;4.03;;
58372;SDS011;44177;43.356;27.672;2022-11-09T16:02:41;5.13;;;4.20;;
58372;SDS011;44177;43.356;27.672;2022-11-09T16:05:07;5.03;;;4.30;;
58372;SDS011;44177;43.356;27.672;2022-11-09T16:07:33;5.43;;;4.07;;
58372;SDS011;44177;43.356;27.672;2022-11-09T16:09:58;5.10;;;4.00;;
58372;SDS011;44177;43.356;27.672;2022-11-09T16:12:24;6.38;;;4.70;;
58372;SDS011;44177;43.356;27.672;2022-11-09T16:14:49;5.20;;;4.20;;
58372;SDS011;44177;43.356;27.672;2022-11-09T16:17:15;6.28;;;4.30;;
58372;SDS011;44177;43.356;27.672;2022-11-09T16:19:41;5.28;;;4.05;;
58372;SDS011;44177;43.356;27.672;2022-11-09T16:22:07;5.95;;;4.13;;
58372;SDS011;44177;43.356;27.672;2022-11-09T16:24:36;4.68;;;3.97;;
58372;SDS011;44177;43.356;27.672;2022-11-09T16:27:02;4.50;;;3.78;;
58372;SDS011;44177;43.356;27.672;2022-11-09T16:29:29;5.13;;;4.10;;
58372;SDS011;44177;43.356;27.672;2022-11-09T16:31:56;5.68;;;3.90;;